createdAt,value
2019-03-13T00:01:11.622Z,67.51
2019-03-13T00:03:44.004Z,67.33
2019-03-13T00:06:16.465Z,67.12
2019-03-13T00:08:48.836Z,67.22
2019-03-13T00:11:21.226Z,67.19
2019-03-13T00:13:53.594Z,67.54
2019-03-13T00:16:26.065Z,67.47
2019-03-13T00:18:58.431Z,67.24
2019-03-13T00:21:30.700Z,67.25
2019-03-13T00:24:02.672Z,66.91
2019-03-13T00:26:35.035Z,67.19
2019-03-13T00:29:07.416Z,67.16
2019-03-13T00:31:39.437Z,67.23
2019-03-13T00:34:12.965Z,67.08
2019-03-13T00:36:57.708Z,67.09
2019-03-13T00:39:30.260Z,67.12
2019-03-13T00:42:02.574Z,67.30
2019-03-13T00:44:35.971Z,67.09
2019-03-13T00:47:08.256Z,67.50
2019-03-13T00:49:41.343Z,67.27
2019-03-13T00:52:13.705Z,67.44
2019-03-13T00:54:46.083Z,67.28
2019-03-13T00:57:19.470Z,67.27
2019-03-13T00:59:52.973Z,67.51
2019-03-13T01:02:37.125Z,67.32
2019-03-13T01:05:12.049Z,67.64
2019-03-13T01:07:44.429Z,67.72
2019-03-13T01:10:16.372Z,67.87
2019-03-13T01:12:48.661Z,67.76
2019-03-13T01:15:20.615Z,67.65
2019-03-13T01:17:52.995Z,67.84
2019-03-13T01:20:25.366Z,67.89
2019-03-13T01:22:57.728Z,67.63
2019-03-13T01:25:29.684Z,67.45
2019-03-13T01:28:02.074Z,67.82
2019-03-13T01:30:35.620Z,67.54
2019-03-13T01:33:09.119Z,67.24
2019-03-13T01:35:43.078Z,67.09
2019-03-13T01:38:15.456Z,67.28
2019-03-13T01:40:47.814Z,66.90
2019-03-13T01:43:20.397Z,66.61
2019-03-13T01:45:52.765Z,66.81
2019-03-13T01:48:25.146Z,66.73
2019-03-13T01:50:58.739Z,66.44
2019-03-13T01:53:31.209Z,66.68
2019-03-13T01:56:03.541Z,66.23
2019-03-13T01:58:35.867Z,66.59
2019-03-13T02:01:08.334Z,66.44
2019-03-13T02:03:40.261Z,66.35
2019-03-13T02:06:12.770Z,66.25
2019-03-13T02:08:45.148Z,66.19
2019-03-13T02:11:18.731Z,65.83
2019-03-13T02:13:50.646Z,66.15
2019-03-13T02:16:23.076Z,65.82
2019-03-13T02:18:55.448Z,65.67
2019-03-13T02:21:27.881Z,65.47
2019-03-13T02:24:00.291Z,65.54
2019-03-13T02:26:32.670Z,65.59
2019-03-13T02:29:05.040Z,65.62
2019-03-13T02:31:37.507Z,65.09
2019-03-13T02:34:09.786Z,65.11
2019-03-13T02:36:42.145Z,65.03
2019-03-13T02:39:14.417Z,64.88
2019-03-13T02:41:46.924Z,64.90
2019-03-13T02:44:18.829Z,64.71
2019-03-13T02:46:52.199Z,64.95
2019-03-13T02:49:24.527Z,64.69
2019-03-13T02:51:56.899Z,64.72
2019-03-13T02:54:29.272Z,64.50
2019-03-13T02:57:01.256Z,64.71
2019-03-13T02:59:34.187Z,64.55
2019-03-13T03:02:08.256Z,64.31
2019-03-13T03:04:40.594Z,63.80
2019-03-13T03:07:13.170Z,63.92
2019-03-13T03:09:45.331Z,63.64
2019-03-13T03:12:17.389Z,63.76
2019-03-13T03:15:08.518Z,63.87
2019-03-13T03:17:40.480Z,63.86
2019-03-13T03:20:20.933Z,63.82
2019-03-13T03:22:53.332Z,63.68
2019-03-13T03:25:25.799Z,64.01
2019-03-13T03:27:58.157Z,64.11
2019-03-13T03:30:30.537Z,64.01
2019-03-13T03:33:02.911Z,63.74
2019-03-13T03:35:34.824Z,63.77
2019-03-13T03:38:07.242Z,63.91
2019-03-13T03:40:39.608Z,63.99
2019-03-13T03:43:11.891Z,63.81
2019-03-13T03:45:44.268Z,63.65
2019-03-13T03:48:16.620Z,63.74
2019-03-13T03:50:48.994Z,63.39
2019-03-13T03:53:21.363Z,63.51
2019-03-13T03:55:53.854Z,63.47
2019-03-13T03:58:29.364Z,63.43
2019-03-13T04:01:00.337Z,63.26
2019-03-13T04:03:32.897Z,63.43
2019-03-13T04:06:05.280Z,63.33
2019-03-13T04:08:37.983Z,63.07
2019-03-13T04:11:10.190Z,63.32
2019-03-13T04:13:44.933Z,63.55
2019-03-13T04:16:16.091Z,63.24
2019-03-13T04:18:48.579Z,63.40
2019-03-13T04:21:20.948Z,63.54
2019-03-13T04:23:52.912Z,63.75
2019-03-13T04:26:25.283Z,63.33
2019-03-13T04:28:57.771Z,62.89
2019-03-13T04:31:29.667Z,62.58
2019-03-13T04:34:02.080Z,62.44
2019-03-13T04:36:34.319Z,62.49
2019-03-13T04:39:07.457Z,61.94
2019-03-13T04:41:39.816Z,62.08
2019-03-13T04:44:12.289Z,61.68
2019-03-13T04:46:44.664Z,61.46
2019-03-13T04:49:17.132Z,61.87
2019-03-13T04:51:49.509Z,61.85
2019-03-13T04:54:21.873Z,62.57
2019-03-13T04:56:53.790Z,62.73
2019-03-13T04:59:26.218Z,64.21
2019-03-13T05:01:58.588Z,64.55
2019-03-13T05:04:30.958Z,65.33
2019-03-13T05:07:03.325Z,65.64
2019-03-13T05:09:38.752Z,66.25
2019-03-13T05:12:11.150Z,66.93
2019-03-13T05:14:43.512Z,67.68
2019-03-13T05:17:15.787Z,67.95
2019-03-13T05:19:48.165Z,69.13
2019-03-13T05:22:20.528Z,68.62
2019-03-13T05:24:52.900Z,69.09
2019-03-13T05:27:25.169Z,69.39
2019-03-13T05:29:57.641Z,69.58
2019-03-13T05:32:30.019Z,69.42
2019-03-13T05:35:02.391Z,70.15
2019-03-13T05:37:34.756Z,69.98
2019-03-13T05:40:13.273Z,71.27
2019-03-13T05:42:45.541Z,73.36
2019-03-13T05:45:17.915Z,73.63
2019-03-13T05:47:50.194Z,73.33
2019-03-13T05:50:22.372Z,75.36
2019-03-13T05:52:54.725Z,76.65
2019-03-13T05:55:27.094Z,77.93
2019-03-13T05:57:59.008Z,79.23
2019-03-13T06:00:31.434Z,80.08
2019-03-13T06:03:03.801Z,79.45
2019-03-13T06:05:36.183Z,80.79
2019-03-13T06:08:08.116Z,81.84
2019-03-13T06:10:40.503Z,81.75
2019-03-13T06:13:12.784Z,82.01
2019-03-13T06:15:45.157Z,82.64
2019-03-13T06:18:18.547Z,82.29
2019-03-13T06:20:50.921Z,82.74
2019-03-13T06:23:23.293Z,83.42
2019-03-13T06:25:55.372Z,83.73
2019-03-13T06:28:27.725Z,83.72
2019-03-13T06:31:00.209Z,83.69
2019-03-13T06:33:32.144Z,82.94
2019-03-13T06:36:04.536Z,83.31
2019-03-13T06:38:36.808Z,83.72
2019-03-13T06:41:09.185Z,83.62
2019-03-13T06:43:41.500Z,83.89
2019-03-13T06:46:14.031Z,83.19
2019-03-13T06:48:45.947Z,82.78
2019-03-13T06:51:18.351Z,82.72
2019-03-13T06:53:50.733Z,82.05
2019-03-13T06:56:23.714Z,82.49
2019-03-13T06:59:09.437Z,82.57
2019-03-13T07:01:54.993Z,82.42
2019-03-13T07:04:34.623Z,82.54
2019-03-13T07:07:14.434Z,82.60
2019-03-13T07:09:48.387Z,82.45
2019-03-13T07:12:25.057Z,82.67
2019-03-13T07:15:05.145Z,82.82
2019-03-13T07:17:41.985Z,82.84
2019-03-13T07:20:21.848Z,82.29
2019-03-13T07:23:08.232Z,82.27
2019-03-13T07:26:04.471Z,82.03
2019-03-13T07:28:54.856Z,81.92
2019-03-13T07:31:34.379Z,81.78
2019-03-13T07:34:11.265Z,82.25
2019-03-13T07:36:51.228Z,82.11
2019-03-13T07:39:29.122Z,81.67
2019-03-13T07:42:12.044Z,81.60
2019-03-13T07:44:56.086Z,80.79
2019-03-13T07:47:32.313Z,80.54
2019-03-13T07:50:07.744Z,79.92
2019-03-13T07:52:42.623Z,79.36
2019-03-13T07:55:31.596Z,79.23
2019-03-13T07:58:05.498Z,78.48
2019-03-13T08:00:57.842Z,77.08
2019-03-13T08:03:29.477Z,77.09
2019-03-13T08:06:19.688Z,76.79
2019-03-13T08:08:51.749Z,76.52
2019-03-13T08:11:28.118Z,77.31
2019-03-13T08:14:17.982Z,77.69
2019-03-13T08:16:55.795Z,77.78
2019-03-13T08:19:30.716Z,77.29
2019-03-13T08:22:11.495Z,76.74
2019-03-13T08:24:48.179Z,75.02
2019-03-13T08:27:24.842Z,74.67
2019-03-13T08:30:02.410Z,74.13
2019-03-13T08:32:43.712Z,72.26
2019-03-13T08:35:17.617Z,71.98
2019-03-13T08:37:51.836Z,69.81
2019-03-13T08:40:24.006Z,68.11
2019-03-13T08:43:02.104Z,67.23
2019-03-13T08:45:44.496Z,65.90
2019-03-13T08:48:21.601Z,65.18
2019-03-13T08:50:58.271Z,65.91
2019-03-13T08:54:00.344Z,65.32
2019-03-13T08:56:41.720Z,65.98
2019-03-13T08:59:18.504Z,66.40
2019-03-13T09:02:07.461Z,63.57
2019-03-13T09:04:42.166Z,61.46
2019-03-13T09:07:25.621Z,58.77
2019-03-13T09:09:59.522Z,55.00
2019-03-13T09:12:33.437Z,54.01
2019-03-13T09:15:10.871Z,53.74
2019-03-13T09:17:53.331Z,54.59
2019-03-13T09:20:43.009Z,56.71
2019-03-13T09:23:22.648Z,56.33
2019-03-13T09:26:00.760Z,55.79
2019-03-13T09:28:50.542Z,55.22
2019-03-13T09:31:33.457Z,53.43
2019-03-13T09:34:10.010Z,54.53
2019-03-13T09:37:09.132Z,54.85
2019-03-13T09:39:45.702Z,56.16
2019-03-13T09:42:19.219Z,56.00
2019-03-13T09:44:53.102Z,56.83
2019-03-13T09:47:39.810Z,56.45
2019-03-13T09:50:26.945Z,55.94
2019-03-13T09:53:18.871Z,56.04
2019-03-13T09:55:52.774Z,57.01
2019-03-13T09:58:38.546Z,56.88
2019-03-13T10:01:29.364Z,57.32
2019-03-13T10:04:05.701Z,56.92
2019-03-13T10:06:48.845Z,57.45
2019-03-13T10:09:38.735Z,56.00
2019-03-13T10:12:21.762Z,53.28
2019-03-13T10:15:01.718Z,53.49
2019-03-13T10:17:36.324Z,52.01
2019-03-13T10:20:28.766Z,51.66
2019-03-13T10:23:18.854Z,51.30
2019-03-13T10:26:08.740Z,52.18
2019-03-13T10:28:57.798Z,53.08
2019-03-13T10:31:47.723Z,52.58
2019-03-13T10:34:37.359Z,52.27
2019-03-13T10:37:17.727Z,51.17
2019-03-13T10:40:06.685Z,51.85
2019-03-13T10:42:50.834Z,52.22
2019-03-13T10:45:25.466Z,54.00
2019-03-13T10:48:00.440Z,52.60
2019-03-13T10:50:40.133Z,52.59
2019-03-13T10:53:22.947Z,52.23
2019-03-13T10:56:12.940Z,52.17
2019-03-13T10:59:03.122Z,53.27
2019-03-13T11:01:55.778Z,52.35
2019-03-13T11:04:30.694Z,51.89
2019-03-13T11:07:20.903Z,50.76
2019-03-13T11:09:54.909Z,50.72
2019-03-13T11:12:32.015Z,48.73
2019-03-13T11:15:07.132Z,47.98
2019-03-13T11:18:41.231Z,46.30
2019-03-13T11:21:15.677Z,47.90
2019-03-13T11:24:07.728Z,44.55
2019-03-13T11:26:39.939Z,45.81
2019-03-13T11:29:16.360Z,46.72
2019-03-13T11:31:54.025Z,46.38
2019-03-13T11:34:27.940Z,47.42
2019-03-13T11:37:04.811Z,45.53
2019-03-13T11:39:50.193Z,45.96
2019-03-13T11:42:25.030Z,46.12
2019-03-13T11:44:59.435Z,46.62
2019-03-13T11:47:42.736Z,46.06
2019-03-13T11:50:18.619Z,43.95
2019-03-13T11:52:55.291Z,43.64
2019-03-13T11:55:29.572Z,44.50
2019-03-13T11:58:10.378Z,46.14
2019-03-13T12:00:42.544Z,42.98
2019-03-13T12:03:17.898Z,43.90
2019-03-13T12:06:01.788Z,43.05
2019-03-13T12:08:50.074Z,41.58
2019-03-13T12:11:38.065Z,40.98
2019-03-13T12:14:14.786Z,41.44
2019-03-13T12:16:49.815Z,40.23
2019-03-13T12:19:42.168Z,39.44
2019-03-13T12:22:13.798Z,39.43
2019-03-13T12:24:47.732Z,37.51
2019-03-13T12:27:28.082Z,37.89
2019-03-13T12:30:18.172Z,36.99
2019-03-13T12:32:58.427Z,35.94
2019-03-13T12:35:38.384Z,37.71
2019-03-13T12:38:24.162Z,36.94
2019-03-13T12:40:56.246Z,37.63
2019-03-13T12:43:33.824Z,37.30
2019-03-13T12:46:07.080Z,38.30
2019-03-13T12:48:46.804Z,36.78
2019-03-13T12:51:20.978Z,39.50
2019-03-13T12:53:52.592Z,37.94
2019-03-13T12:56:26.130Z,39.29
2019-03-13T12:59:03.121Z,39.41
2019-03-13T13:01:47.152Z,40.75
2019-03-13T13:04:24.236Z,41.13
2019-03-13T13:07:07.367Z,37.96
2019-03-13T13:09:56.945Z,40.49
2019-03-13T13:12:29.726Z,41.27
2019-03-13T13:15:09.366Z,39.01
2019-03-13T13:17:43.286Z,38.08
2019-03-13T13:20:16.271Z,34.30
2019-03-13T13:22:49.147Z,34.28
2019-03-13T13:25:21.508Z,36.30
2019-03-13T13:27:53.887Z,38.79
2019-03-13T13:30:26.157Z,39.35
2019-03-13T13:32:58.537Z,36.60
2019-03-13T13:35:30.696Z,33.00
2019-03-13T13:38:03.071Z,31.46
2019-03-13T13:40:35.331Z,32.27
2019-03-13T13:43:07.707Z,32.09
2019-03-13T13:45:46.536Z,30.13
2019-03-13T13:48:18.898Z,30.82
2019-03-13T13:50:51.283Z,31.54
2019-03-13T13:53:23.651Z,36.03
2019-03-13T13:55:56.568Z,37.47
2019-03-13T13:58:28.760Z,35.52
2019-03-13T14:01:01.172Z,30.53
2019-03-13T14:03:33.554Z,30.36
2019-03-13T14:06:06.678Z,29.94
2019-03-13T14:08:39.102Z,31.60
2019-03-13T14:11:11.796Z,32.78
2019-03-13T14:13:44.166Z,34.29
2019-03-13T14:16:16.539Z,32.40
2019-03-13T14:18:48.898Z,32.47
2019-03-13T14:21:21.285Z,34.27
2019-03-13T14:23:54.885Z,34.95
2019-03-13T14:26:28.841Z,35.42
2019-03-13T14:29:00.921Z,36.34
2019-03-13T14:31:33.227Z,37.63
2019-03-13T14:34:05.593Z,36.50
2019-03-13T14:36:38.075Z,36.74
2019-03-13T14:39:10.876Z,38.00
2019-03-13T14:41:43.327Z,37.18
2019-03-13T14:44:15.701Z,36.99
2019-03-13T14:46:49.201Z,38.26
2019-03-13T14:49:21.573Z,38.02
2019-03-13T14:51:53.942Z,38.02
2019-03-13T14:54:27.334Z,38.99
2019-03-13T14:57:00.933Z,35.32
2019-03-13T14:59:33.301Z,37.90
2019-03-13T15:02:05.681Z,39.37
2019-03-13T15:04:38.051Z,37.24
2019-03-13T15:07:10.315Z,35.13
2019-03-13T15:09:42.519Z,34.33
2019-03-13T15:12:14.874Z,33.84
2019-03-13T15:14:47.226Z,36.65
2019-03-13T15:17:19.494Z,39.35
2019-03-13T15:19:51.872Z,39.98
2019-03-13T15:22:25.742Z,40.37
2019-03-13T15:24:58.157Z,40.97
2019-03-13T15:27:30.528Z,41.31
2019-03-13T15:30:02.891Z,41.33
2019-03-13T15:32:38.611Z,42.00
2019-03-13T15:35:12.868Z,42.39
2019-03-13T15:37:45.240Z,42.94
2019-03-13T15:40:21.093Z,43.13
2019-03-13T15:42:53.354Z,42.59
2019-03-13T15:45:34.447Z,42.72
2019-03-13T15:48:07.108Z,43.22
2019-03-13T15:50:39.494Z,44.31
2019-03-13T15:53:11.860Z,43.00
2019-03-13T15:55:44.234Z,43.02
2019-03-13T15:58:16.493Z,43.23
2019-03-13T16:00:48.896Z,43.78
2019-03-13T16:03:21.244Z,43.27
2019-03-13T16:05:53.625Z,43.78
2019-03-13T16:08:25.984Z,43.75
2019-03-13T16:10:58.877Z,44.13
2019-03-13T16:13:31.245Z,44.42
2019-03-13T16:16:03.678Z,43.53
2019-03-13T16:18:35.991Z,43.93
2019-03-13T16:21:08.362Z,43.62
2019-03-13T16:23:41.760Z,44.58
2019-03-13T16:26:14.122Z,44.38
2019-03-13T16:28:46.396Z,44.46
2019-03-13T16:31:18.771Z,44.59
2019-03-13T16:33:50.931Z,44.67
2019-03-13T16:36:23.158Z,45.34
2019-03-13T16:38:55.466Z,45.17
2019-03-13T16:41:27.850Z,44.91
2019-03-13T16:44:00.232Z,45.46
2019-03-13T16:46:32.590Z,45.82
2019-03-13T16:49:04.968Z,45.78
2019-03-13T16:51:36.926Z,46.28
2019-03-13T16:54:09.205Z,46.43
2019-03-13T16:56:41.561Z,46.89
2019-03-13T16:59:13.833Z,47.66
2019-03-13T17:01:46.617Z,47.84
2019-03-13T17:04:18.888Z,48.15
2019-03-13T17:06:51.259Z,49.58
2019-03-13T17:09:23.530Z,49.68
2019-03-13T17:11:55.896Z,49.71
2019-03-13T17:14:28.178Z,49.83
2019-03-13T17:17:00.539Z,49.59
2019-03-13T17:19:32.908Z,50.14
2019-03-13T17:22:05.296Z,50.34
2019-03-13T17:24:37.662Z,50.07
2019-03-13T17:27:10.035Z,50.30
2019-03-13T17:29:42.400Z,50.27
2019-03-13T17:32:14.782Z,50.16
2019-03-13T17:34:47.141Z,50.66
2019-03-13T17:37:19.513Z,49.92
2019-03-13T17:39:51.891Z,49.64
2019-03-13T17:42:24.261Z,49.97
2019-03-13T17:44:56.630Z,49.58
2019-03-13T17:47:29.001Z,49.81
2019-03-13T17:50:01.383Z,49.36
2019-03-13T17:52:33.852Z,49.61
2019-03-13T17:55:10.016Z,49.28
2019-03-13T17:57:42.489Z,48.69
2019-03-13T18:00:32.211Z,47.98
2019-03-13T18:03:04.642Z,47.44
2019-03-13T18:05:37.018Z,48.09
2019-03-13T18:08:09.360Z,47.84
2019-03-13T18:10:41.761Z,48.21
2019-03-13T18:13:14.124Z,48.24
2019-03-13T18:15:46.502Z,48.74
2019-03-13T18:18:18.873Z,49.26
2019-03-13T18:20:51.130Z,49.54
2019-03-13T18:23:23.513Z,50.05
2019-03-13T18:25:55.424Z,50.89
2019-03-13T18:28:27.396Z,50.68
2019-03-13T18:31:02.008Z,51.79
2019-03-13T18:33:34.154Z,51.79
2019-03-13T18:36:06.599Z,51.96
2019-03-13T18:38:38.973Z,52.58
2019-03-13T18:41:11.269Z,53.06
2019-03-13T18:43:43.609Z,53.18
2019-03-13T18:46:15.888Z,53.58
2019-03-13T18:48:48.255Z,53.78
2019-03-13T18:51:20.643Z,54.04
2019-03-13T18:53:52.997Z,53.50
2019-03-13T18:56:25.408Z,54.69
2019-03-13T18:58:59.722Z,54.59
2019-03-13T19:01:32.577Z,53.93
2019-03-13T19:04:04.948Z,54.38
2019-03-13T19:06:37.313Z,54.13
2019-03-13T19:09:09.787Z,53.92
2019-03-13T19:11:43.715Z,53.69
2019-03-13T19:14:16.470Z,53.37
2019-03-13T19:16:48.951Z,53.46
2019-03-13T19:19:21.324Z,53.46
2019-03-13T19:21:53.698Z,53.71
2019-03-13T19:24:26.074Z,53.27
2019-03-13T19:26:58.012Z,53.04
2019-03-13T19:29:30.526Z,53.18
2019-03-13T19:32:02.893Z,53.60
2019-03-13T19:34:35.322Z,53.65
2019-03-13T19:37:09.304Z,53.05
2019-03-13T19:39:41.309Z,52.95
2019-03-13T19:42:13.616Z,53.47
2019-03-13T19:44:46.278Z,53.82
2019-03-13T19:47:18.540Z,53.98
2019-03-13T19:49:50.918Z,53.50
2019-03-13T19:52:22.825Z,53.01
2019-03-13T19:54:55.252Z,53.18
2019-03-13T19:57:27.863Z,53.13
2019-03-13T20:00:02.050Z,53.35
2019-03-13T20:02:35.030Z,53.82
2019-03-13T20:05:11.210Z,53.45
2019-03-13T20:07:43.692Z,53.07
2019-03-13T20:10:24.227Z,53.50
2019-03-13T20:12:56.494Z,53.15
2019-03-13T20:15:35.628Z,53.46
2019-03-13T20:18:07.558Z,53.08
2019-03-13T20:20:39.974Z,54.11
2019-03-13T20:23:15.252Z,53.09
2019-03-13T20:25:47.667Z,52.65
2019-03-13T20:28:19.949Z,52.51
2019-03-13T20:30:52.534Z,52.40
2019-03-13T20:33:28.237Z,51.69
2019-03-13T20:36:02.480Z,51.00
2019-03-13T20:38:35.284Z,50.58
2019-03-13T20:41:07.653Z,50.84
2019-03-13T20:43:40.154Z,50.65
2019-03-13T20:46:13.540Z,50.86
2019-03-13T20:48:45.985Z,50.11
2019-03-13T20:51:20.115Z,50.03
2019-03-13T20:53:52.645Z,50.44
2019-03-13T20:56:25.085Z,50.47
2019-03-13T20:58:57.652Z,50.28
2019-03-13T21:01:29.763Z,50.66
2019-03-13T21:04:02.120Z,50.48
2019-03-13T21:06:34.095Z,50.70
2019-03-13T21:09:07.170Z,50.92
2019-03-13T21:11:41.043Z,51.07
2019-03-13T21:14:13.352Z,51.53
2019-03-13T21:16:45.543Z,50.90
2019-03-13T21:19:17.967Z,51.37
2019-03-13T21:21:50.364Z,51.73
2019-03-13T21:24:23.775Z,51.34
2019-03-13T21:26:55.925Z,51.00
2019-03-13T21:29:28.303Z,52.01
2019-03-13T21:32:00.712Z,52.23
2019-03-13T21:34:33.144Z,52.23
2019-03-13T21:37:06.376Z,51.86
2019-03-13T21:39:39.939Z,51.59
2019-03-13T21:42:13.540Z,51.89
2019-03-13T21:44:46.077Z,52.55
2019-03-13T21:47:18.374Z,51.75
2019-03-13T21:49:50.758Z,52.19
2019-03-13T21:52:23.119Z,51.90
2019-03-13T21:54:55.396Z,51.97
2019-03-13T21:57:27.936Z,52.51
2019-03-13T22:00:00.382Z,52.40
2019-03-13T22:02:36.389Z,52.79
2019-03-13T22:05:07.447Z,53.04
2019-03-13T22:07:40.111Z,52.04
2019-03-13T22:10:13.511Z,52.04
2019-03-13T22:12:46.712Z,51.50
2019-03-13T22:15:24.355Z,51.69
2019-03-13T22:18:01.617Z,51.26
2019-03-13T22:20:33.775Z,50.67
2019-03-13T22:23:07.258Z,50.44
2019-03-13T22:25:40.188Z,50.69
2019-03-13T22:28:16.557Z,50.75
2019-03-13T22:30:50.084Z,50.56
2019-03-13T22:33:22.527Z,50.42
2019-03-13T22:35:58.060Z,50.85
2019-03-13T22:38:39.943Z,50.61
2019-03-13T22:41:12.811Z,50.18
2019-03-13T22:43:45.098Z,50.72
2019-03-13T22:46:21.964Z,51.04
2019-03-13T22:48:58.387Z,50.86
2019-03-13T22:51:31.016Z,51.11
2019-03-13T22:54:05.669Z,51.21
2019-03-13T22:56:38.191Z,51.33
2019-03-13T22:59:10.710Z,51.71
2019-03-13T23:01:43.200Z,51.82
2019-03-13T23:04:15.516Z,52.00
2019-03-13T23:06:48.096Z,52.20
2019-03-13T23:09:23.344Z,52.08
2019-03-13T23:11:56.905Z,52.62
2019-03-13T23:14:34.009Z,52.72
2019-03-13T23:17:14.182Z,53.40
2019-03-13T23:19:49.305Z,52.61
2019-03-13T23:22:21.627Z,53.33
2019-03-13T23:24:54.051Z,53.15
2019-03-13T23:27:26.330Z,53.40
2019-03-13T23:29:58.700Z,53.48
2019-03-13T23:32:31.068Z,54.11
2019-03-13T23:35:04.454Z,53.86
2019-03-13T23:37:37.455Z,53.83
2019-03-13T23:40:11.047Z,53.95
2019-03-13T23:42:43.317Z,54.13
2019-03-13T23:45:15.692Z,54.57
2019-03-13T23:47:49.086Z,53.97
2019-03-13T23:50:21.080Z,54.60
2019-03-13T23:52:53.423Z,54.76
2019-03-13T23:55:25.903Z,54.68
2019-03-13T23:57:57.809Z,54.72
